Time;durP1;ratioP1;P1;durP2;ratioP2;P2;SDS_P1;SDS_P2;PMS_P1;PMS_P2;Temp;Humidity;BMP_temperature;BMP_pressure;BME280_temperature;BME280_humidity;BME280_pressure;Samples;Min_cycle;Max_cycle;Signal;HPM_P1;HPM_P2
2023/03/30 00:01:29;;;;;;;5.70;1.73;;;11.90;99.90;;;;;;5032663;28;20470;-38
2023/03/30 00:03:55;;;;;;;2.95;1.60;;;11.90;99.90;;;;;;5032793;28;20144;-39
2023/03/30 00:06:21;;;;;;;4.25;1.67;;;11.90;99.90;;;;;;5032372;28;20026;-36
2023/03/30 00:08:55;;;;;;;4.93;1.73;;;11.90;99.90;;;;;;5033017;28;20025;-37
2023/03/30 00:11:22;;;;;;;3.40;1.50;;;11.90;99.90;;;;;;5032711;28;20061;-38
2023/03/30 00:13:49;;;;;;;4.18;1.80;;;11.90;99.90;;;;;;5032319;28;20446;-39
2023/03/30 00:16:16;;;;;;;7.53;2.03;;;11.80;99.90;;;;;;5033819;28;20479;-40
2023/03/30 00:18:43;;;;;;;5.82;1.73;;;11.90;99.90;;;;;;5033499;28;20032;-39
2023/03/30 00:21:10;;;;;;;5.35;1.60;;;11.90;99.90;;;;;;5034218;28;20034;-36
2023/03/30 00:23:37;;;;;;;6.10;1.60;;;11.90;99.90;;;;;;5033293;28;20052;-37
2023/03/30 00:26:02;;;;;;;6.38;1.67;;;11.90;99.90;;;;;;5033528;28;20025;-36
2023/03/30 00:28:32;;;;;;;3.60;1.55;;;11.90;99.90;;;;;;5033019;28;20036;-38
2023/03/30 00:30:58;;;;;;;3.65;1.60;;;11.90;99.90;;;;;;5034412;28;20463;-38
2023/03/30 00:33:24;;;;;;;3.55;1.38;;;11.90;99.90;;;;;;5032852;28;20037;-38
2023/03/30 00:35:55;;;;;;;6.68;1.63;;;11.90;99.90;;;;;;5032713;28;20033;-36
2023/03/30 00:38:21;;;;;;;2.75;1.35;;;11.90;99.90;;;;;;5032642;28;20029;-41
2023/03/30 00:40:52;;;;;;;6.18;1.52;;;11.90;99.90;;;;;;5031898;28;20470;-40
2023/03/30 00:43:18;;;;;;;4.65;1.52;;;11.90;99.90;;;;;;5033415;28;20541;-36
2023/03/30 00:45:44;;;;;;;5.88;1.40;;;11.90;99.90;;;;;;5033133;28;20018;-37
2023/03/30 00:48:17;;;;;;;4.43;1.63;;;11.90;99.90;;;;;;5032581;28;20027;-38
2023/03/30 00:50:52;;;;;;;5.60;1.47;;;11.90;99.90;;;;;;5033233;28;20029;-36
2023/03/30 00:53:32;;;;;;;3.40;1.30;;;11.90;99.90;;;;;;5032399;28;20399;-40
2023/03/30 00:56:01;;;;;;;2.30;1.10;;;11.90;99.90;;;;;;5032168;28;20022;-36
2023/03/30 00:58:28;;;;;;;4.07;1.30;;;11.90;99.90;;;;;;5032807;28;20439;-40
2023/03/30 01:00:57;;;;;;;4.47;1.77;;;11.90;99.90;;;;;;5032282;28;20040;-38
2023/03/30 01:03:38;;;;;;;4.60;1.48;;;11.90;99.90;;;;;;5032738;28;20551;-36
2023/03/30 01:06:08;;;;;;;5.00;1.50;;;11.90;99.90;;;;;;5031152;28;20036;-40
2023/03/30 01:08:36;;;;;;;5.55;1.60;;;11.90;99.90;;;;;;5031642;28;20049;-37
2023/03/30 01:11:05;;;;;;;3.10;1.20;;;11.90;99.90;;;;;;5032450;28;20030;-37
2023/03/30 01:13:34;;;;;;;6.97;1.48;;;11.90;99.90;;;;;;5032484;28;20034;-39
2023/03/30 01:16:27;;;;;;;4.80;1.52;;;11.90;99.90;;;;;;5032275;28;20041;-38
2023/03/30 01:19:53;;;;;;;3.60;1.52;;;11.80;99.90;;;;;;5031949;28;20483;-36
2023/03/30 01:22:43;;;;;;;3.55;1.45;;;11.80;99.90;;;;;;5009706;28;20045;-36
2023/03/30 01:25:35;;;;;;;3.03;1.42;;;11.80;99.90;;;;;;5031972;28;20021;-38
2023/03/30 01:28:24;;;;;;;3.80;1.52;;;11.90;99.90;;;;;;5031502;28;20026;-39
2023/03/30 01:31:10;;;;;;;4.90;1.80;;;11.90;99.90;;;;;;5032075;28;20060;-36
2023/03/30 01:34:21;;;;;;;5.43;1.73;;;11.80;99.90;;;;;;5032530;28;20040;-37
2023/03/30 01:37:14;;;;;;;6.57;1.35;;;11.80;99.90;;;;;;5031375;28;20076;-38
2023/03/30 01:39:55;;;;;;;3.08;1.17;;;11.90;99.90;;;;;;5032342;28;20030;-36
2023/03/30 01:42:34;;;;;;;4.53;1.60;;;11.90;99.90;;;;;;5031256;28;20033;-38
2023/03/30 01:45:25;;;;;;;3.30;1.65;;;11.80;99.90;;;;;;5032035;28;20443;-40
2023/03/30 01:48:20;;;;;;;3.85;1.38;;;11.80;99.90;;;;;;5031553;28;20504;-37
2023/03/30 01:50:53;;;;;;;3.33;1.60;;;11.80;99.90;;;;;;5031579;28;20032;-40
2023/03/30 01:53:34;;;;;;;4.90;1.50;;;11.80;99.90;;;;;;5032015;28;20044;-38
2023/03/30 01:56:13;;;;;;;5.97;1.40;;;11.90;99.90;;;;;;5031655;28;20472;-36
2023/03/30 01:58:48;;;;;;;5.22;1.38;;;11.90;99.90;;;;;;5032148;28;20022;-37
2023/03/30 02:01:16;;;;;;;3.58;1.35;;;11.90;99.90;;;;;;5032546;28;20088;-39
2023/03/30 02:03:46;;;;;;;5.97;2.03;;;11.90;99.90;;;;;;5031514;28;20429;-38
2023/03/30 02:06:53;;;;;;;5.40;1.45;;;11.80;99.90;;;;;;5031131;28;20023;-38
2023/03/30 02:09:25;;;;;;;3.88;1.55;;;11.90;99.90;;;;;;5009529;28;20133;-37
2023/03/30 02:11:52;;;;;;;7.63;1.70;;;11.90;99.90;;;;;;5028930;28;20045;-39
2023/03/30 02:14:22;;;;;;;4.45;1.67;;;11.80;99.90;;;;;;5031858;28;20018;-36
2023/03/30 02:16:56;;;;;;;3.15;1.40;;;11.90;99.90;;;;;;5030680;28;20028;-38
2023/03/30 02:19:22;;;;;;;5.47;1.77;;;11.80;99.90;;;;;;5031286;28;20030;-43
2023/03/30 02:21:49;;;;;;;5.80;1.60;;;11.90;99.90;;;;;;5031197;28;20026;-40
2023/03/30 02:24:18;;;;;;;5.32;1.48;;;11.80;99.90;;;;;;5030575;28;20372;-36
2023/03/30 02:26:46;;;;;;;6.95;1.42;;;11.80;99.90;;;;;;5028911;28;20026;-39
2023/03/30 02:29:13;;;;;;;3.40;1.60;;;11.80;99.90;;;;;;5031139;28;20092;-43
2023/03/30 02:31:39;;;;;;;3.97;1.35;;;11.80;99.90;;;;;;5031855;28;20029;-38
2023/03/30 02:34:27;;;;;;;5.72;1.75;;;11.80;99.90;;;;;;5030981;28;20025;-42
2023/03/30 02:37:26;;;;;;;5.45;1.70;;;11.90;99.90;;;;;;5032928;28;20032;-38
2023/03/30 02:40:11;;;;;;;5.80;1.85;;;11.90;99.90;;;;;;5035604;28;20495;-36
2023/03/30 02:42:58;;;;;;;4.80;1.70;;;11.80;99.90;;;;;;5035627;28;20022;-39
2023/03/30 02:45:54;;;;;;;4.40;1.48;;;11.90;99.90;;;;;;5035365;28;20480;-38
2023/03/30 02:48:47;;;;;;;8.27;1.38;;;11.90;99.90;;;;;;5035883;28;20040;-38
2023/03/30 02:51:34;;;;;;;4.55;1.35;;;11.90;99.90;;;;;;5035637;28;20036;-40
2023/03/30 02:54:11;;;;;;;4.55;1.42;;;11.90;99.90;;;;;;5035224;28;20026;-38
2023/03/30 02:57:15;;;;;;;9.43;1.75;;;11.80;99.90;;;;;;5034270;28;20091;-39
2023/03/30 02:59:43;;;;;;;5.20;1.50;;;11.90;99.90;;;;;;5034581;28;20099;-36
2023/03/30 03:02:18;;;;;;;6.43;1.58;;;11.80;99.90;;;;;;5034965;28;20030;-36
2023/03/30 03:04:46;;;;;;;5.55;1.50;;;11.80;99.90;;;;;;5035915;28;20260;-39
2023/03/30 03:07:13;;;;;;;5.10;1.63;;;11.80;99.90;;;;;;5035303;28;20025;-40
2023/03/30 03:09:40;;;;;;;5.10;1.42;;;11.80;99.90;;;;;;5033998;28;20416;-36
2023/03/30 03:12:06;;;;;;;4.32;1.73;;;11.80;99.90;;;;;;5035222;28;20383;-36
2023/03/30 03:14:32;;;;;;;5.25;1.75;;;11.80;99.90;;;;;;5034957;28;20028;-36
2023/03/30 03:16:58;;;;;;;6.53;1.70;;;11.80;99.90;;;;;;5034597;28;20017;-38
2023/03/30 03:19:24;;;;;;;4.32;1.15;;;11.80;99.90;;;;;;5034431;28;20430;-42
2023/03/30 03:21:50;;;;;;;5.57;1.60;;;11.80;99.90;;;;;;5034647;28;20087;-40
2023/03/30 03:24:19;;;;;;;5.40;1.77;;;11.80;99.90;;;;;;5034490;28;20123;-40
2023/03/30 03:26:45;;;;;;;3.90;1.35;;;11.80;99.90;;;;;;5035812;28;20119;-36
2023/03/30 03:29:11;;;;;;;6.32;1.92;;;11.80;99.90;;;;;;5033747;28;20225;-38
2023/03/30 03:31:36;;;;;;;2.47;1.50;;;11.80;99.90;;;;;;5033495;28;20033;-40
2023/03/30 03:34:03;;;;;;;3.95;1.27;;;11.70;99.90;;;;;;5033491;28;20028;-36
2023/03/30 03:36:29;;;;;;;4.43;1.50;;;11.70;99.90;;;;;;5034389;28;20041;-39
2023/03/30 03:38:55;;;;;;;4.50;1.67;;;11.70;99.90;;;;;;5033860;28;20168;-41
2023/03/30 03:41:21;;;;;;;3.78;1.25;;;11.70;99.90;;;;;;5034451;28;20081;-36
2023/03/30 03:43:47;;;;;;;3.75;1.40;;;11.70;99.90;;;;;;5035236;28;20025;-40
2023/03/30 03:46:14;;;;;;;4.03;1.50;;;11.70;99.90;;;;;;5033042;28;20026;-39
2023/03/30 03:48:39;;;;;;;4.32;1.23;;;11.70;99.90;;;;;;5034097;28;20388;-37
2023/03/30 03:51:05;;;;;;;6.68;1.38;;;11.70;99.90;;;;;;5034208;28;20021;-36
2023/03/30 03:53:31;;;;;;;6.18;1.60;;;11.70;99.90;;;;;;5033005;28;20037;-39
2023/03/30 03:55:57;;;;;;;4.53;1.63;;;11.70;99.90;;;;;;5033656;28;20025;-36
2023/03/30 03:58:24;;;;;;;3.55;1.23;;;11.70;99.90;;;;;;5033650;28;20049;-36
2023/03/30 04:00:50;;;;;;;4.05;1.60;;;11.70;99.90;;;;;;5034313;28;20503;-36
2023/03/30 04:03:16;;;;;;;3.58;1.40;;;11.70;99.90;;;;;;5034147;28;20049;-36
2023/03/30 04:05:42;;;;;;;2.90;1.20;;;11.70;99.90;;;;;;5032983;28;20495;-37
2023/03/30 04:08:09;;;;;;;3.03;1.65;;;11.70;99.90;;;;;;5032723;28;20499;-36
2023/03/30 04:10:39;;;;;;;4.68;1.58;;;11.70;99.90;;;;;;5034174;28;20487;-38
2023/03/30 04:13:05;;;;;;;3.88;1.50;;;11.70;99.90;;;;;;5034720;28;20049;-38
2023/03/30 04:15:31;;;;;;;4.22;1.35;;;11.70;99.90;;;;;;5033448;28;20152;-41
2023/03/30 04:17:57;;;;;;;4.82;1.65;;;11.70;99.90;;;;;;5032619;28;20499;-38
2023/03/30 04:20:25;;;;;;;5.32;1.50;;;11.70;99.90;;;;;;5033284;28;20030;-38
2023/03/30 04:22:52;;;;;;;4.63;1.70;;;11.70;99.90;;;;;;5032719;28;20038;-42
2023/03/30 04:25:20;;;;;;;5.28;1.60;;;11.70;99.90;;;;;;5032864;28;20021;-40
2023/03/30 04:27:49;;;;;;;3.72;1.20;;;11.70;99.90;;;;;;5034107;28;20091;-36
2023/03/30 04:30:16;;;;;;;4.13;1.50;;;11.70;99.90;;;;;;5034360;28;20062;-40
2023/03/30 04:32:43;;;;;;;4.72;1.70;;;11.70;99.90;;;;;;5033058;28;20033;-38
2023/03/30 04:35:09;;;;;;;3.30;1.23;;;11.70;99.90;;;;;;5032995;28;20086;-40
2023/03/30 04:37:37;;;;;;;3.67;1.20;;;11.70;99.90;;;;;;5032003;28;20028;-38
2023/03/30 04:40:08;;;;;;;4.68;1.45;;;11.70;99.90;;;;;;5031256;28;20066;-39
2023/03/30 04:42:36;;;;;;;6.85;1.95;;;11.70;99.90;;;;;;5032504;28;20029;-38
2023/03/30 04:45:07;;;;;;;3.13;1.52;;;11.70;99.90;;;;;;5032161;28;20226;-38
2023/03/30 04:47:33;;;;;;;5.60;1.50;;;11.70;99.90;;;;;;5031527;28;20436;-39
2023/03/30 04:49:59;;;;;;;4.50;1.40;;;11.70;99.90;;;;;;5031795;28;20032;-39
2023/03/30 04:52:26;;;;;;;7.25;1.50;;;11.70;99.90;;;;;;5031934;28;20386;-38
2023/03/30 04:54:51;;;;;;;2.67;1.20;;;11.70;99.90;;;;;;5031897;28;20026;-38
2023/03/30 04:57:17;;;;;;;5.20;1.45;;;11.70;99.90;;;;;;5031329;28;20038;-38
2023/03/30 04:59:43;;;;;;;7.45;1.67;;;11.70;99.90;;;;;;5031352;28;20561;-38
2023/03/30 05:02:11;;;;;;;4.28;1.48;;;11.70;99.90;;;;;;5031566;28;20034;-38
2023/03/30 05:04:37;;;;;;;7.07;1.60;;;11.70;99.90;;;;;;5031538;28;20040;-38
2023/03/30 05:07:03;;;;;;;3.35;1.38;;;11.70;99.90;;;;;;5031217;28;20109;-41
2023/03/30 05:09:29;;;;;;;3.28;1.20;;;11.70;99.90;;;;;;5031624;28;20033;-39
2023/03/30 05:11:54;;;;;;;5.45;1.33;;;11.70;99.90;;;;;;5031930;28;20083;-38
2023/03/30 05:14:20;;;;;;;4.32;1.42;;;11.70;99.90;;;;;;5031859;28;20035;-39
2023/03/30 05:16:46;;;;;;;6.25;1.70;;;11.70;99.90;;;;;;5031055;28;20100;-39
2023/03/30 05:19:11;;;;;;;2.60;1.02;;;11.70;99.90;;;;;;5031325;28;20037;-39
2023/03/30 05:21:37;;;;;;;6.32;1.52;;;11.70;99.90;;;;;;5031509;28;20037;-39
2023/03/30 05:24:03;;;;;;;4.60;1.60;;;11.70;99.90;;;;;;5031323;28;20403;-38
2023/03/30 05:26:29;;;;;;;6.05;1.60;;;11.70;99.90;;;;;;5030852;28;20025;-37
2023/03/30 05:28:55;;;;;;;6.68;1.77;;;11.70;99.90;;;;;;5031332;28;20022;-38
2023/03/30 05:31:21;;;;;;;4.25;1.38;;;11.70;99.90;;;;;;5031320;28;20025;-38
2023/03/30 05:33:47;;;;;;;3.38;1.50;;;11.70;99.90;;;;;;5031067;28;20120;-38
2023/03/30 05:36:13;;;;;;;5.78;1.80;;;11.70;99.90;;;;;;5030745;28;20029;-39
2023/03/30 05:38:39;;;;;;;7.00;1.80;;;11.70;99.90;;;;;;5031179;28;20118;-38
2023/03/30 05:41:05;;;;;;;4.38;1.42;;;11.70;99.90;;;;;;5030722;28;20476;-36
2023/03/30 05:43:32;;;;;;;2.75;1.13;;;11.70;99.90;;;;;;5033176;28;20100;-36
2023/03/30 05:45:58;;;;;;;5.40;1.45;;;11.70;99.90;;;;;;5032782;28;20021;-41
2023/03/30 05:48:24;;;;;;;4.55;1.40;;;11.70;99.90;;;;;;5031262;28;20025;-38
2023/03/30 05:50:49;;;;;;;6.55;1.60;;;11.70;99.90;;;;;;5032636;28;20053;-37
2023/03/30 05:53:15;;;;;;;6.57;1.80;;;11.70;99.90;;;;;;5032764;28;20033;-38
2023/03/30 05:55:48;;;;;;;4.10;1.42;;;11.70;99.90;;;;;;5031861;28;20029;-40
2023/03/30 05:58:15;;;;;;;4.53;1.50;;;11.70;99.90;;;;;;5032163;28;20033;-39
2023/03/30 06:00:43;;;;;;;6.07;1.40;;;11.70;99.90;;;;;;5032205;28;20108;-36
2023/03/30 06:03:10;;;;;;;4.43;1.60;;;11.70;99.90;;;;;;5032284;28;20105;-39
2023/03/30 06:05:42;;;;;;;4.95;1.42;;;11.70;99.90;;;;;;5031044;28;20025;-36
2023/03/30 06:08:08;;;;;;;5.38;1.60;;;11.70;99.90;;;;;;5032607;28;20048;-39
2023/03/30 06:10:35;;;;;;;3.95;1.58;;;11.70;99.90;;;;;;5032033;28;20056;-42
2023/03/30 06:13:01;;;;;;;6.47;1.48;;;11.70;99.90;;;;;;5035529;28;20034;-38
2023/03/30 06:15:27;;;;;;;7.18;1.63;;;11.60;99.90;;;;;;5034712;28;20022;-35
2023/03/30 06:17:52;;;;;;;7.70;1.63;;;11.70;99.90;;;;;;5034616;28;20498;-36
2023/03/30 06:20:20;;;;;;;5.18;1.58;;;11.70;99.90;;;;;;5036082;28;20360;-40
2023/03/30 06:22:46;;;;;;;4.80;1.60;;;11.70;99.90;;;;;;5036107;28;20021;-37
2023/03/30 06:25:13;;;;;;;3.65;1.48;;;11.70;99.90;;;;;;5036814;28;20371;-44
2023/03/30 06:27:38;;;;;;;7.45;2.10;;;11.70;99.90;;;;;;5034642;28;20049;-42
2023/03/30 06:30:05;;;;;;;7.40;1.92;;;11.70;99.90;;;;;;5034620;28;20068;-41
2023/03/30 06:32:30;;;;;;;4.32;1.30;;;11.70;99.90;;;;;;5034826;28;20530;-41
2023/03/30 06:34:56;;;;;;;5.18;1.88;;;11.70;99.90;;;;;;5036058;28;20060;-36
2023/03/30 06:37:22;;;;;;;3.53;1.40;;;11.70;99.90;;;;;;5036071;28;20075;-37
2023/03/30 06:39:47;;;;;;;8.65;1.55;;;11.70;99.90;;;;;;5035208;28;20037;-38
2023/03/30 06:42:13;;;;;;;3.80;1.55;;;11.70;99.90;;;;;;5035049;28;20036;-36
2023/03/30 06:44:39;;;;;;;5.65;1.52;;;11.70;99.90;;;;;;5034456;28;20025;-36
2023/03/30 06:47:05;;;;;;;5.95;1.42;;;11.70;99.90;;;;;;5034363;28;20021;-39
2023/03/30 06:49:31;;;;;;;4.32;1.70;;;11.70;99.90;;;;;;5036372;28;20025;-40
2023/03/30 06:51:57;;;;;;;5.47;1.50;;;11.70;99.90;;;;;;5036042;28;20017;-39
2023/03/30 06:54:23;;;;;;;4.32;1.63;;;11.70;99.90;;;;;;5036483;28;20044;-36
2023/03/30 06:56:49;;;;;;;7.07;1.50;;;11.70;99.90;;;;;;5034941;28;20021;-37
2023/03/30 06:59:15;;;;;;;5.35;1.63;;;11.70;99.90;;;;;;5034480;28;20369;-42
2023/03/30 07:01:41;;;;;;;3.65;1.67;;;11.70;99.90;;;;;;5034499;28;20116;-36
2023/03/30 07:04:08;;;;;;;5.38;1.52;;;11.70;99.90;;;;;;5034350;28;20121;-37
2023/03/30 07:06:34;;;;;;;5.97;1.20;;;11.70;99.90;;;;;;5033497;28;20033;-38
2023/03/30 07:09:01;;;;;;;5.95;1.58;;;11.70;99.90;;;;;;5034378;28;20053;-37
2023/03/30 07:11:27;;;;;;;5.60;1.60;;;11.70;99.90;;;;;;5034214;28;20022;-38
2023/03/30 07:13:57;;;;;;;6.15;1.60;;;11.70;99.90;;;;;;5033863;28;20454;-38
2023/03/30 07:16:23;;;;;;;5.22;1.33;;;11.70;99.90;;;;;;5034249;28;20052;-35
2023/03/30 07:18:49;;;;;;;6.47;1.65;;;11.70;99.90;;;;;;5034432;28;20395;-38
2023/03/30 07:21:15;;;;;;;3.28;1.30;;;11.70;99.90;;;;;;5034805;28;20026;-40
2023/03/30 07:23:42;;;;;;;3.97;1.63;;;11.70;99.90;;;;;;5034641;28;20056;-41
2023/03/30 07:26:08;;;;;;;6.63;1.63;;;11.70;99.90;;;;;;5035015;28;20051;-38
2023/03/30 07:28:39;;;;;;;4.82;1.63;;;11.70;99.90;;;;;;5035082;28;20014;-40
2023/03/30 07:31:07;;;;;;;6.38;1.55;;;11.70;99.90;;;;;;5034731;28;20056;-36
2023/03/30 07:33:32;;;;;;;4.90;1.50;;;11.70;99.90;;;;;;5034173;28;20025;-39
2023/03/30 07:35:58;;;;;;;3.45;1.45;;;11.70;99.90;;;;;;5033752;28;20033;-37
2023/03/30 07:38:24;;;;;;;4.68;1.80;;;11.70;99.90;;;;;;5034014;28;20041;-40
2023/03/30 07:40:50;;;;;;;3.05;1.40;;;11.70;99.90;;;;;;5033800;28;20026;-36
2023/03/30 07:43:15;;;;;;;4.38;1.52;;;11.70;99.90;;;;;;5034265;28;20500;-35
2023/03/30 07:45:41;;;;;;;4.70;1.63;;;11.70;99.90;;;;;;5034141;28;20112;-39
2023/03/30 07:48:07;;;;;;;3.90;1.33;;;11.70;99.90;;;;;;5033877;28;20029;-36
2023/03/30 07:50:32;;;;;;;5.82;1.60;;;11.70;99.90;;;;;;5034293;28;20028;-38
2023/03/30 07:52:58;;;;;;;4.40;1.17;;;11.70;99.90;;;;;;5035386;28;20033;-40
2023/03/30 07:55:24;;;;;;;4.63;1.52;;;11.70;99.90;;;;;;5033269;28;20072;-36
2023/03/30 07:57:49;;;;;;;3.83;1.40;;;11.70;99.90;;;;;;5034766;28;20052;-39
2023/03/30 08:00:15;;;;;;;4.13;1.48;;;11.70;99.90;;;;;;5034288;28;20025;-40
2023/03/30 08:02:41;;;;;;;6.28;1.67;;;11.70;99.90;;;;;;5033123;28;20580;-38
2023/03/30 08:05:08;;;;;;;5.97;2.00;;;11.70;99.90;;;;;;5033791;28;20060;-39
2023/03/30 08:07:34;;;;;;;3.60;1.33;;;11.70;99.90;;;;;;5034101;28;20063;-39
2023/03/30 08:09:59;;;;;;;5.05;1.23;;;11.70;99.90;;;;;;5034353;28;20075;-40
2023/03/30 08:12:26;;;;;;;4.90;1.30;;;11.70;99.90;;;;;;5034051;28;20022;-39
2023/03/30 08:14:51;;;;;;;3.92;1.27;;;11.70;99.90;;;;;;5033187;28;20438;-42
2023/03/30 08:17:18;;;;;;;6.35;1.30;;;11.70;99.90;;;;;;5032759;28;20055;-40
2023/03/30 08:19:44;;;;;;;2.97;1.30;;;11.70;99.90;;;;;;5033566;28;20078;-43
2023/03/30 08:22:09;;;;;;;3.58;1.30;;;11.70;99.90;;;;;;5033159;28;20033;-36
2023/03/30 08:24:36;;;;;;;3.42;1.30;;;11.70;99.90;;;;;;5033557;28;20021;-39
2023/03/30 08:27:02;;;;;;;4.40;1.50;;;11.70;99.90;;;;;;5032751;28;20040;-38
2023/03/30 08:29:30;;;;;;;2.92;1.73;;;11.70;99.90;;;;;;5032432;28;20487;-36
2023/03/30 08:31:56;;;;;;;5.25;1.55;;;11.70;99.90;;;;;;5033259;28;20029;-40
2023/03/30 08:34:22;;;;;;;3.63;1.20;;;11.70;99.90;;;;;;5033669;28;20476;-41
2023/03/30 08:36:47;;;;;;;4.68;1.50;;;11.70;99.90;;;;;;5033092;28;20108;-36
2023/03/30 08:39:14;;;;;;;4.32;1.52;;;11.70;99.90;;;;;;5032943;28;20471;-39
2023/03/30 08:41:56;;;;;;;4.47;1.48;;;11.70;99.90;;;;;;5032064;28;20029;-36
2023/03/30 08:44:32;;;;;;;3.40;1.30;;;11.70;99.90;;;;;;5033721;28;20365;-39
2023/03/30 08:47:01;;;;;;;4.03;1.20;;;11.70;99.90;;;;;;5032223;28;20091;-36
2023/03/30 08:49:30;;;;;;;3.80;1.27;;;11.70;99.90;;;;;;5032729;28;20025;-37
2023/03/30 08:51:57;;;;;;;3.95;1.70;;;11.70;99.90;;;;;;5032794;28;20030;-39
2023/03/30 08:54:24;;;;;;;4.72;1.60;;;11.70;99.90;;;;;;5032881;28;20029;-36
2023/03/30 08:57:10;;;;;;;3.20;1.35;;;11.70;99.90;;;;;;5032996;28;20024;-36
2023/03/30 09:00:05;;;;;;;3.60;1.40;;;11.70;99.90;;;;;;5032138;28;20026;-36
2023/03/30 09:02:43;;;;;;;4.15;1.30;;;11.70;99.90;;;;;;5032375;28;20045;-36
2023/03/30 09:05:30;;;;;;;3.35;1.35;;;11.70;99.90;;;;;;5031711;28;20104;-39
2023/03/30 09:08:22;;;;;;;4.45;1.50;;;11.70;99.90;;;;;;5032335;28;20037;-37
2023/03/30 09:11:03;;;;;;;2.70;1.35;;;11.70;99.90;;;;;;5032730;28;20036;-38
2023/03/30 09:13:35;;;;;;;4.68;1.70;;;11.70;99.90;;;;;;5032688;28;20520;-41
2023/03/30 09:16:28;;;;;;;3.30;1.23;;;11.70;99.90;;;;;;5031266;28;20037;-36
2023/03/30 09:18:56;;;;;;;5.13;1.33;;;11.70;99.90;;;;;;5031701;28;20026;-38
2023/03/30 09:21:27;;;;;;;2.97;1.63;;;11.70;99.90;;;;;;5032313;28;20565;-41
2023/03/30 09:24:00;;;;;;;3.97;1.50;;;11.70;99.90;;;;;;5031953;28;20054;-39
2023/03/30 09:26:38;;;;;;;3.67;1.33;;;11.70;99.90;;;;;;5031238;28;20022;-37
2023/03/30 09:29:13;;;;;;;5.00;1.77;;;11.70;99.90;;;;;;5031718;28;20486;-36
2023/03/30 09:31:43;;;;;;;3.42;1.40;;;11.70;99.90;;;;;;5032994;28;20053;-39
2023/03/30 09:34:24;;;;;;;3.78;1.30;;;11.70;99.90;;;;;;5033007;28;20033;-35
2023/03/30 09:37:03;;;;;;;3.45;1.52;;;11.70;99.90;;;;;;5031496;28;20151;-36
2023/03/30 09:39:32;;;;;;;3.03;1.25;;;11.70;99.90;;;;;;5032053;28;20033;-38
2023/03/30 09:42:26;;;;;;;2.40;1.40;;;11.70;99.90;;;;;;5032156;28;20026;-39
2023/03/30 09:44:57;;;;;;;3.85;1.65;;;11.70;99.90;;;;;;5029024;28;20033;-39
2023/03/30 09:47:31;;;;;;;2.25;1.13;;;11.70;99.90;;;;;;5030551;28;20021;-39
2023/03/30 09:50:11;;;;;;;3.97;1.20;;;11.70;99.90;;;;;;5031117;28;20029;-38
2023/03/30 09:52:40;;;;;;;3.00;1.40;;;11.70;99.90;;;;;;5031053;28;20033;-39
2023/03/30 09:55:30;;;;;;;3.25;1.38;;;11.70;99.90;;;;;;5031023;28;20017;-39
2023/03/30 09:58:18;;;;;;;4.10;1.30;;;11.70;99.90;;;;;;5030660;28;20030;-38
2023/03/30 10:00:44;;;;;;;3.80;1.60;;;11.70;99.90;;;;;;5029425;28;20037;-38
2023/03/30 10:03:19;;;;;;;2.60;1.30;;;11.70;99.90;;;;;;5030852;28;20106;-38
2023/03/30 10:06:01;;;;;;;3.45;1.40;;;11.70;99.90;;;;;;5030717;28;20247;-38
2023/03/30 10:08:27;;;;;;;2.92;1.15;;;11.80;99.90;;;;;;5030937;28;20483;-39
2023/03/30 10:10:55;;;;;;;4.82;1.73;;;11.80;99.90;;;;;;5030795;28;20036;-39
2023/03/30 10:13:28;;;;;;;3.80;1.48;;;11.80;99.90;;;;;;5030635;28;20108;-38
2023/03/30 10:15:54;;;;;;;2.60;1.60;;;11.80;99.90;;;;;;5031177;28;20026;-37
2023/03/30 10:18:26;;;;;;;2.88;1.23;;;11.80;99.90;;;;;;5031128;28;20033;-39
2023/03/30 10:21:00;;;;;;;3.45;1.27;;;11.80;99.90;;;;;;5031384;28;20392;-39
2023/03/30 10:23:32;;;;;;;3.35;1.48;;;11.80;99.90;;;;;;5030741;28;20507;-38
2023/03/30 10:26:02;;;;;;;2.65;1.23;;;11.80;99.90;;;;;;5031699;28;20442;-38
2023/03/30 10:28:32;;;;;;;3.70;1.10;;;11.80;99.90;;;;;;5031658;28;20029;-38
2023/03/30 10:31:02;;;;;;;2.80;1.30;;;11.80;99.90;;;;;;5031500;28;20029;-38
2023/03/30 10:33:29;;;;;;;3.60;1.30;;;11.90;99.90;;;;;;5030682;28;20026;-39
2023/03/30 10:35:59;;;;;;;3.75;1.48;;;11.90;99.90;;;;;;5030211;28;20038;-38
2023/03/30 10:38:31;;;;;;;2.40;1.10;;;11.80;99.90;;;;;;5030652;28;20053;-38
2023/03/30 10:41:06;;;;;;;1.60;1.20;;;11.90;99.90;;;;;;5029789;28;20653;-36
2023/03/30 10:43:33;;;;;;;2.55;1.40;;;11.90;99.90;;;;;;5031986;28;20042;-41
2023/03/30 10:46:10;;;;;;;2.97;1.42;;;11.90;99.90;;;;;;5030829;28;20056;-38
2023/03/30 10:48:44;;;;;;;3.08;1.45;;;11.90;99.90;;;;;;5032445;28;20025;-40
2023/03/30 10:51:34;;;;;;;1.35;0.98;;;11.90;99.90;;;;;;5031014;28;20029;-40
2023/03/30 10:54:26;;;;;;;3.42;1.17;;;11.90;99.90;;;;;;5032147;28;20025;-36
2023/03/30 10:56:59;;;;;;;2.70;1.10;;;11.90;99.90;;;;;;5031671;28;20458;-39
2023/03/30 10:59:36;;;;;;;3.28;1.17;;;11.90;99.90;;;;;;5035160;28;20030;-41
2023/03/30 11:02:31;;;;;;;2.15;1.13;;;11.90;99.90;;;;;;5034763;28;20041;-37
2023/03/30 11:05:11;;;;;;;3.10;1.27;;;11.90;99.90;;;;;;5034020;28;20132;-40
2023/03/30 11:07:48;;;;;;;3.05;1.30;;;11.90;99.90;;;;;;5033527;28;20099;-36
2023/03/30 11:10:21;;;;;;;2.33;1.25;;;11.90;99.90;;;;;;5034370;28;20503;-36
2023/03/30 11:12:58;;;;;;;2.80;1.27;;;11.90;99.90;;;;;;5034939;28;20033;-38
2023/03/30 11:15:30;;;;;;;1.63;1.10;;;11.90;99.90;;;;;;5035264;28;20036;-40
2023/03/30 11:18:05;;;;;;;1.52;1.10;;;11.90;99.90;;;;;;5034581;28;20092;-36
2023/03/30 11:20:36;;;;;;;3.40;1.40;;;11.90;99.90;;;;;;5035023;28;20109;-40
2023/03/30 11:23:37;;;;;;;2.97;1.10;;;11.90;99.90;;;;;;5035259;28;20076;-39
2023/03/30 11:26:05;;;;;;;3.53;1.40;;;11.90;99.90;;;;;;5034076;28;20510;-36
2023/03/30 11:29:01;;;;;;;2.58;1.35;;;11.90;99.90;;;;;;5035140;28;20073;-39
2023/03/30 11:31:52;;;;;;;2.95;1.30;;;11.90;99.90;;;;;;5035742;28;20026;-36
2023/03/30 11:34:42;;;;;;;4.15;1.25;;;11.90;99.90;;;;;;5035616;28;20017;-40
2023/03/30 11:37:46;;;;;;;2.35;1.33;;;11.90;99.90;;;;;;5033533;28;20036;-36
2023/03/30 11:40:20;;;;;;;3.30;1.35;;;11.90;99.90;;;;;;5030352;28;20095;-38
2023/03/30 11:42:46;;;;;;;1.93;1.20;;;12.00;99.90;;;;;;5034487;28;20029;-38
2023/03/30 11:45:32;;;;;;;3.38;1.00;;;12.00;99.90;;;;;;5033352;28;20112;-38
2023/03/30 11:48:32;;;;;;;3.35;1.45;;;12.00;99.90;;;;;;5021555;28;20068;-38
2023/03/30 11:51:17;;;;;;;2.88;1.35;;;12.00;99.90;;;;;;5033382;28;20029;-39
2023/03/30 11:53:59;;;;;;;5.22;1.30;;;12.00;99.90;;;;;;5033156;28;20420;-39
2023/03/30 11:56:31;;;;;;;2.65;1.50;;;12.00;99.90;;;;;;5032548;28;20064;-39
2023/03/30 11:58:56;;;;;;;2.63;1.30;;;12.00;99.90;;;;;;5033238;28;20138;-38
2023/03/30 12:01:38;;;;;;;3.22;1.38;;;12.00;99.90;;;;;;5032740;28;20185;-37
2023/03/30 12:04:08;;;;;;;4.43;1.42;;;11.90;99.90;;;;;;5032860;28;20074;-39
2023/03/30 12:07:03;;;;;;;3.72;1.40;;;12.00;99.90;;;;;;5032207;28;20053;-38
2023/03/30 12:09:58;;;;;;;;;;;12.00;99.90;;;;;;5032045;28;20495;-38
2023/03/30 12:12:35;;;;;;;7.47;2.28;;;12.00;99.90;;;;;;5024495;28;19905;-42
2023/03/30 12:15:25;;;;;;;13.43;2.63;;;12.00;99.90;;;;;;5033519;28;20038;-37
2023/03/30 12:18:15;;;;;;;9.45;2.75;;;12.10;99.90;;;;;;5032492;28;20029;-38
2023/03/30 12:20:52;;;;;;;12.00;2.35;;;12.10;99.90;;;;;;5033029;28;20072;-39
2023/03/30 12:23:45;;;;;;;7.68;2.20;;;12.10;99.90;;;;;;5033127;28;20041;-41
2023/03/30 12:26:29;;;;;;;7.65;2.25;;;12.10;99.90;;;;;;5031997;28;20053;-37
2023/03/30 12:29:03;;;;;;;8.60;2.00;;;12.10;99.90;;;;;;5031422;28;20032;-37
2023/03/30 12:31:49;;;;;;;6.47;2.40;;;12.10;99.90;;;;;;5032779;28;20105;-38
2023/03/30 12:34:16;;;;;;;4.47;1.75;;;12.20;99.90;;;;;;5032654;28;20028;-42
2023/03/30 12:37:03;;;;;;;6.55;2.20;;;12.20;99.90;;;;;;5032110;28;20021;-38
2023/03/30 12:40:09;;;;;;;4.18;2.10;;;12.10;99.90;;;;;;5032864;28;20022;-38
2023/03/30 12:43:00;;;;;;;5.30;2.13;;;12.10;99.90;;;;;;5031334;28;20041;-41
2023/03/30 12:45:33;;;;;;;7.03;2.28;;;12.10;99.90;;;;;;5032063;28;20357;-38
2023/03/30 12:48:07;;;;;;;7.15;2.15;;;12.20;99.90;;;;;;5031765;28;20104;-44
2023/03/30 12:50:57;;;;;;;5.93;2.00;;;12.20;99.90;;;;;;5031897;28;20030;-39
2023/03/30 12:54:00;;;;;;;6.10;2.10;;;12.10;99.90;;;;;;5032081;28;20037;-40
2023/03/30 12:56:49;;;;;;;8.00;1.60;;;12.20;99.90;;;;;;5031348;28;20033;-38
2023/03/30 12:59:55;;;;;;;4.80;2.00;;;12.20;99.90;;;;;;5031880;28;20533;-39
2023/03/30 13:02:45;;;;;;;5.95;1.92;;;12.20;99.90;;;;;;5009399;28;20037;-38
2023/03/30 13:05:39;;;;;;;5.30;2.03;;;12.20;99.90;;;;;;5031840;28;20107;-40
2023/03/30 13:08:20;;;;;;;7.25;2.17;;;12.20;99.90;;;;;;5030690;28;20112;-39
2023/03/30 13:10:46;;;;;;;5.07;2.00;;;12.20;99.90;;;;;;5031776;28;20025;-39
2023/03/30 13:13:23;;;;;;;4.00;1.75;;;12.30;99.90;;;;;;5031590;28;20029;-38
2023/03/30 13:15:53;;;;;;;4.90;1.65;;;12.30;99.90;;;;;;5031222;28;20028;-38
2023/03/30 13:18:33;;;;;;;7.85;2.25;;;12.30;99.90;;;;;;5031470;28;20084;-38